Terminal Aerodrome Forecast
Issued by NWS Sterling, VA

Current Version | Previous Version | Text Only | Print | Product List | Glossary Off
Versions: 1 2 3 4 5 6 7 8 9 10 11 12 13

000
FTUS41 KLWX 141700
TAFMRB
TAF
KMRB 141720Z 1418/1518 VRB03KT P6SM BKN035 BKN250=

USA.gov is the U.S. government's official web portal to all federal, state and local government web resources and services.